createdAt,value
2019-04-20T00:01:38.765Z,3.77
2019-04-20T00:04:09.885Z,2.73
2019-04-20T00:06:47.809Z,3.27
2019-04-20T00:09:18.434Z,3.33
2019-04-20T00:11:53.588Z,3.50
2019-04-20T00:14:20.926Z,3.17
2019-04-20T00:16:48.239Z,3.80
2019-04-20T00:19:26.103Z,3.30
2019-04-20T00:21:59.618Z,3.70
2019-04-20T00:24:50.490Z,3.50
2019-04-20T00:27:38.887Z,3.10
2019-04-20T00:30:06.723Z,2.90
2019-04-20T00:32:40.050Z,2.93
2019-04-20T00:34:53.996Z,3.53
2019-04-20T00:37:25.097Z,2.70
2019-04-20T00:39:57.449Z,3.37
2019-04-20T00:42:34.059Z,3.37
2019-04-20T00:45:05.857Z,2.90
2019-04-20T00:47:43.007Z,3.07
2019-04-20T00:50:21.333Z,3.30
2019-04-20T00:52:50.917Z,3.10
2019-04-20T00:55:04.592Z,3.07
2019-04-20T00:57:44.771Z,3.23
2019-04-20T01:00:25.849Z,2.93
2019-04-20T01:02:50.587Z,3.67
2019-04-20T01:05:38.864Z,3.37
2019-04-20T01:08:03.635Z,3.43
2019-04-20T01:10:38.994Z,3.30
2019-04-20T01:13:11.033Z,3.00
2019-04-20T01:15:42.921Z,3.30
2019-04-20T01:18:05.978Z,3.27
2019-04-20T01:20:36.510Z,3.73
2019-04-20T01:23:10.077Z,3.37
2019-04-20T01:25:40.957Z,3.33
2019-04-20T01:28:25.018Z,3.17
2019-04-20T01:30:44.429Z,3.33
2019-04-20T01:33:26.013Z,3.40
2019-04-20T01:35:57.180Z,2.83
2019-04-20T01:38:26.753Z,3.17
2019-04-20T01:40:44.245Z,3.30
2019-04-20T01:43:14.275Z,3.47
2019-04-20T01:45:44.414Z,3.43
2019-04-20T01:48:23.937Z,3.40
2019-04-20T01:50:54.826Z,3.50
2019-04-20T01:53:40.575Z,3.40
2019-04-20T01:56:09.879Z,3.37
2019-04-20T01:58:49.140Z,3.83
2019-04-20T02:01:25.068Z,4.03
2019-04-20T02:04:20.470Z,3.57
2019-04-20T02:06:50.435Z,3.47
2019-04-20T02:09:21.124Z,2.90
2019-04-20T02:11:51.798Z,3.50
2019-04-20T02:14:28.650Z,3.27
2019-04-20T02:17:01.637Z,3.63
2019-04-20T02:19:34.694Z,3.47
2019-04-20T02:22:06.319Z,3.80
2019-04-20T02:24:25.835Z,3.40
2019-04-20T02:26:55.698Z,3.00
2019-04-20T02:29:46.231Z,3.10
2019-04-20T02:32:36.267Z,3.60
2019-04-20T02:35:07.220Z,3.47
2019-04-20T02:38:03.149Z,3.40
2019-04-20T02:40:26.959Z,3.70
2019-04-20T02:43:02.192Z,3.47
2019-04-20T02:48:08.119Z,3.80
2019-04-20T02:50:34.105Z,3.50
2019-04-20T02:53:05.084Z,3.90
2019-04-20T02:55:38.124Z,3.50
2019-04-20T02:58:05.223Z,3.37
2019-04-20T03:02:46.068Z,3.87
2019-04-20T03:05:16.168Z,4.00
2019-04-20T03:07:57.627Z,3.37
2019-04-20T03:10:39.364Z,4.17
2019-04-20T03:13:04.045Z,3.53
2019-04-20T03:15:32.817Z,3.20
2019-04-20T03:18:03.612Z,3.10
2019-04-20T03:20:36.621Z,3.60
2019-04-20T03:25:55.368Z,3.27
2019-04-20T03:28:28.776Z,3.33
2019-04-20T03:31:29.775Z,3.70
2019-04-20T03:34:05.806Z,3.30
2019-04-20T03:36:19.853Z,3.93
2019-04-20T03:38:38.644Z,3.73
2019-04-20T03:41:04.823Z,3.30
2019-04-20T03:43:22.674Z,3.33
2019-04-20T03:45:59.531Z,4.17
2019-04-20T03:48:43.915Z,3.07
2019-04-20T03:51:14.726Z,3.73
2019-04-20T03:54:02.650Z,3.37
2019-04-20T03:56:49.632Z,3.50
2019-04-20T03:59:28.931Z,4.07
2019-04-20T04:02:29.954Z,3.70
2019-04-20T04:04:59.407Z,3.67
2019-04-20T04:07:19.573Z,5.23
2019-04-20T04:10:00.805Z,4.70
2019-04-20T04:12:38.370Z,4.30
2019-04-20T04:15:04.235Z,5.13
2019-04-20T04:17:39.081Z,4.00
2019-04-20T04:20:11.323Z,3.87
2019-04-20T04:22:50.064Z,4.03
2019-04-20T04:25:20.752Z,4.20
2019-04-20T04:27:57.115Z,3.80
2019-04-20T04:30:25.336Z,3.37
2019-04-20T04:33:20.162Z,4.27
2019-04-20T04:35:26.713Z,3.77
2019-04-20T04:38:02.602Z,3.10
2019-04-20T04:40:39.895Z,4.17
2019-04-20T04:43:10.386Z,3.77
2019-04-20T04:45:25.023Z,3.63
2019-04-20T04:47:51.628Z,3.50
2019-04-20T04:50:24.871Z,3.80
2019-04-20T04:52:59.716Z,3.47
2019-04-20T04:55:32.730Z,3.43
2019-04-20T04:57:53.848Z,4.03
2019-04-20T05:00:28.146Z,3.80
2019-04-20T05:03:00.298Z,4.23
2019-04-20T05:05:50.299Z,3.60
2019-04-20T05:08:15.471Z,3.60
2019-04-20T05:10:36.999Z,4.40
2019-04-20T05:13:07.126Z,4.07
2019-04-20T05:15:48.414Z,4.00
2019-04-20T05:18:36.079Z,4.50
2019-04-20T05:20:58.836Z,4.73
2019-04-20T05:23:41.430Z,4.20
2019-04-20T05:26:44.843Z,3.77
2019-04-20T05:29:03.210Z,3.90
2019-04-20T05:31:36.096Z,3.20
2019-04-20T05:34:21.828Z,3.67
2019-04-20T05:36:50.593Z,4.10
2019-04-20T05:39:29.251Z,3.97
2019-04-20T05:41:49.541Z,3.57
2019-04-20T05:44:22.174Z,3.80
2019-04-20T05:47:02.936Z,3.80
2019-04-20T05:49:32.152Z,4.30
2019-04-20T05:52:04.158Z,4.30
2019-04-20T05:54:33.581Z,4.63
2019-04-20T05:57:05.513Z,3.80
2019-04-20T05:59:34.938Z,3.83
2019-04-20T06:02:09.727Z,3.63
2019-04-20T06:04:55.866Z,4.27
2019-04-20T06:07:15.550Z,5.20
2019-04-20T06:09:42.347Z,4.30
2019-04-20T06:12:33.041Z,4.27
2019-04-20T06:15:04.161Z,4.60
2019-04-20T06:18:01.317Z,4.00
2019-04-20T06:20:38.050Z,3.87
2019-04-20T06:23:37.644Z,4.37
2019-04-20T06:26:12.936Z,3.57
2019-04-20T06:28:25.857Z,3.80
2019-04-20T06:30:52.617Z,4.30
2019-04-20T06:37:05.745Z,4.40
2019-04-20T06:39:42.647Z,4.43
2019-04-20T06:42:14.005Z,3.90
2019-04-20T06:44:34.384Z,4.13
2019-04-20T06:47:08.905Z,3.63
2019-04-20T06:49:52.973Z,4.20
2019-04-20T06:55:05.594Z,4.27
2019-04-20T07:00:22.850Z,3.60
2019-04-20T07:05:21.101Z,3.63
2019-04-20T07:07:54.626Z,4.33
2019-04-20T07:10:25.261Z,4.07
2019-04-20T07:12:53.299Z,3.53
2019-04-20T07:15:26.468Z,3.97
2019-04-20T07:20:55.500Z,3.73
2019-04-20T07:23:26.555Z,3.73
2019-04-20T07:25:56.219Z,3.97
2019-04-20T07:28:32.849Z,4.27
2019-04-20T07:30:59.710Z,4.47
2019-04-20T07:33:32.222Z,3.70
2019-04-20T07:35:55.953Z,3.50
2019-04-20T07:38:34.542Z,3.70
2019-04-20T07:40:58.851Z,3.70
2019-04-20T07:43:34.842Z,3.97
2019-04-20T07:46:10.397Z,3.80
2019-04-20T07:48:36.645Z,3.60
2019-04-20T07:51:00.665Z,4.03
2019-04-20T07:53:33.222Z,3.83
2019-04-20T07:56:13.439Z,3.47
2019-04-20T07:58:33.708Z,4.33
2019-04-20T08:01:30.144Z,3.90
2019-04-20T08:04:06.664Z,3.40
2019-04-20T08:06:32.121Z,3.53
2019-04-20T08:09:07.876Z,4.20
2019-04-20T08:11:50.045Z,3.83
2019-04-20T08:17:05.328Z,3.20
2019-04-20T08:19:16.147Z,3.73
2019-04-20T08:21:52.938Z,3.67
2019-04-20T08:24:21.358Z,3.57
2019-04-20T08:26:43.432Z,3.77
2019-04-20T08:29:28.202Z,3.90
2019-04-20T08:32:14.970Z,3.00
2019-04-20T08:34:50.726Z,3.47
2019-04-20T08:37:17.600Z,5.53
2019-04-20T08:39:59.010Z,3.87
2019-04-20T08:42:24.802Z,4.20
2019-04-20T08:45:02.999Z,3.77
2019-04-20T08:47:35.280Z,3.83
2019-04-20T08:53:06.855Z,3.60
2019-04-20T08:55:15.023Z,3.33
2019-04-20T08:57:29.102Z,3.37
2019-04-20T09:00:01.497Z,3.90
2019-04-20T09:02:32.506Z,4.07
2019-04-20T09:05:09.064Z,4.23
2019-04-20T09:07:47.798Z,3.70
2019-04-20T09:10:28.266Z,4.23
2019-04-20T09:12:54.706Z,3.60
2019-04-20T09:15:10.612Z,4.23
2019-04-20T09:17:51.829Z,3.50
2019-04-20T09:20:29.459Z,3.90
2019-04-20T09:23:07.030Z,3.67
2019-04-20T09:28:14.558Z,3.80
2019-04-20T09:30:49.938Z,3.47
2019-04-20T09:34:04.664Z,3.77
2019-04-20T09:36:49.278Z,3.70
2019-04-20T09:39:30.436Z,4.00
2019-04-20T09:42:11.420Z,4.07
2019-04-20T09:44:46.087Z,3.70
2019-04-20T09:47:14.170Z,4.13
2019-04-20T09:49:55.471Z,4.00
2019-04-20T09:52:29.009Z,3.67
2019-04-20T09:55:03.174Z,3.40
2019-04-20T09:57:37.940Z,4.10
2019-04-20T10:00:05.592Z,3.63
2019-04-20T10:02:27.766Z,3.70
2019-04-20T10:04:53.799Z,3.30
2019-04-20T10:07:26.159Z,4.07
2019-04-20T10:09:55.827Z,3.40
2019-04-20T10:12:26.090Z,3.40
2019-04-20T10:14:58.457Z,3.43
2019-04-20T10:17:31.328Z,3.33
2019-04-20T10:20:04.584Z,3.27
2019-04-20T10:22:30.936Z,3.63
2019-04-20T10:25:00.459Z,3.47
2019-04-20T10:27:30.668Z,2.80
2019-04-20T10:30:03.786Z,3.07
2019-04-20T10:32:38.803Z,2.90
2019-04-20T10:35:04.532Z,3.30
2019-04-20T10:37:39.746Z,3.03
2019-04-20T10:40:11.478Z,3.30
2019-04-20T10:42:41.856Z,3.03
2019-04-20T10:45:12.886Z,3.00
2019-04-20T10:47:43.169Z,3.03
2019-04-20T10:50:13.389Z,3.10
2019-04-20T10:52:43.668Z,3.67
2019-04-20T10:55:14.699Z,3.60
2019-04-20T10:57:45.885Z,4.67
2019-04-20T11:00:17.424Z,3.93
2019-04-20T11:02:48.914Z,3.30
2019-04-20T11:05:20.290Z,3.60
2019-04-20T11:07:50.527Z,3.30
2019-04-20T11:10:26.805Z,3.13
2019-04-20T11:12:52.494Z,3.00
2019-04-20T11:15:22.336Z,3.30
2019-04-20T11:17:53.271Z,3.17
2019-04-20T11:20:23.446Z,3.77
2019-04-20T11:22:53.455Z,2.97
2019-04-20T11:25:24.291Z,3.33
2019-04-20T11:27:54.452Z,2.70
2019-04-20T11:30:25.891Z,3.20
2019-04-20T11:32:56.086Z,2.87
2019-04-20T11:35:32.676Z,2.97
2019-04-20T11:37:57.652Z,2.77
2019-04-20T11:40:28.760Z,3.10
2019-04-20T11:42:59.543Z,3.07
2019-04-20T11:45:30.934Z,2.67
2019-04-20T11:48:01.236Z,3.07
2019-04-20T11:50:31.624Z,2.90
2019-04-20T11:53:01.654Z,2.87
2019-04-20T11:55:31.635Z,3.00
2019-04-20T11:58:01.728Z,2.90
2019-04-20T12:00:52.193Z,2.67
2019-04-20T12:03:31.491Z,2.80
2019-04-20T12:05:59.137Z,2.70
2019-04-20T12:08:27.295Z,2.83
2019-04-20T12:11:00.281Z,2.67
2019-04-20T12:13:29.046Z,2.67
2019-04-20T12:15:59.371Z,2.80
2019-04-20T12:18:29.596Z,2.57
2019-04-20T12:21:00.789Z,2.70
2019-04-20T12:23:30.779Z,2.90
2019-04-20T12:26:01.925Z,2.33
2019-04-20T12:28:31.944Z,2.83
2019-04-20T12:31:10.173Z,2.80
2019-04-20T12:33:34.480Z,2.67
2019-04-20T12:36:07.930Z,3.60
2019-04-20T12:38:39.144Z,2.70
2019-04-20T12:41:10.926Z,2.60
2019-04-20T12:43:41.555Z,3.03
2019-04-20T12:46:13.626Z,2.87
2019-04-20T12:48:43.845Z,2.77
2019-04-20T12:51:13.836Z,2.93
2019-04-20T12:53:44.521Z,2.60
2019-04-20T12:56:14.727Z,2.43
2019-04-20T12:58:45.168Z,2.77
2019-04-20T13:01:17.698Z,3.13
2019-04-20T13:03:47.655Z,3.07
2019-04-20T13:06:17.686Z,2.97
2019-04-20T13:08:52.355Z,2.93
2019-04-20T13:11:26.865Z,2.80
2019-04-20T13:14:52.693Z,3.00
2019-04-20T13:17:22.632Z,2.50
2019-04-20T13:19:53.340Z,3.13
2019-04-20T13:22:23.230Z,3.10
2019-04-20T13:24:53.199Z,2.67
2019-04-20T13:27:23.085Z,3.03
2019-04-20T13:29:54.534Z,2.90
2019-04-20T13:32:25.710Z,2.80
2019-04-20T13:34:56.229Z,3.53
2019-04-20T13:37:26.517Z,2.67
2019-04-20T13:39:56.681Z,3.07
2019-04-20T13:42:29.629Z,2.47
2019-04-20T13:44:58.975Z,2.97
2019-04-20T13:47:30.474Z,2.90
2019-04-20T13:50:01.070Z,3.03
2019-04-20T13:52:30.995Z,2.30
2019-04-20T13:55:00.901Z,2.93
2019-04-20T13:57:46.126Z,2.67
2019-04-20T14:00:41.389Z,2.90
2019-04-20T14:03:12.834Z,2.90
2019-04-20T14:05:42.919Z,3.33
2019-04-20T14:08:15.594Z,2.60
2019-04-20T14:10:47.177Z,2.90
2019-04-20T14:13:20.106Z,2.93
2019-04-20T14:15:49.288Z,3.10
2019-04-20T14:18:19.446Z,2.67
2019-04-20T14:20:50.065Z,2.60
2019-04-20T14:23:21.150Z,2.37
2019-04-20T14:25:51.193Z,2.70
2019-04-20T14:28:21.049Z,2.87
2019-04-20T14:30:51.965Z,2.67
2019-04-20T14:33:23.072Z,2.60
2019-04-20T14:35:54.721Z,2.87
2019-04-20T14:38:24.860Z,3.10
2019-04-20T14:40:54.992Z,2.77
2019-04-20T14:43:24.965Z,3.30
2019-04-20T14:45:54.885Z,2.33
2019-04-20T14:48:25.163Z,2.60
2019-04-20T14:50:55.957Z,2.77
2019-04-20T14:53:27.357Z,2.70
2019-04-20T14:55:57.674Z,2.80
2019-04-20T14:58:53.593Z,2.97
2019-04-20T15:01:32.512Z,3.27
2019-04-20T15:04:06.806Z,2.67
2019-04-20T15:06:36.762Z,2.43
2019-04-20T15:09:08.791Z,3.00
2019-04-20T15:11:41.675Z,2.90
2019-04-20T15:14:11.067Z,2.93
2019-04-20T15:16:42.541Z,2.40
2019-04-20T15:19:29.531Z,2.73
2019-04-20T15:22:01.353Z,2.73
2019-04-20T15:24:31.548Z,2.87
2019-04-20T15:27:02.556Z,3.47
2019-04-20T15:29:32.621Z,2.77
2019-04-20T15:32:04.060Z,2.87
2019-04-20T15:34:35.058Z,2.97
2019-04-20T15:37:05.553Z,2.57
2019-04-20T15:39:36.948Z,2.67
2019-04-20T15:42:07.396Z,2.70
2019-04-20T15:44:37.597Z,2.60
2019-04-20T15:47:09.094Z,2.60
2019-04-20T15:49:39.955Z,2.80
2019-04-20T15:52:12.511Z,2.70
2019-04-20T15:54:41.549Z,2.80
2019-04-20T15:57:16.580Z,2.83
2019-04-20T15:59:44.387Z,2.80
2019-04-20T16:02:20.938Z,3.10
2019-04-20T16:05:16.555Z,2.40
2019-04-20T16:07:52.451Z,2.60
2019-04-20T16:10:19.288Z,2.37
2019-04-20T16:12:52.719Z,3.23
2019-04-20T16:15:20.372Z,3.10
2019-04-20T16:17:53.083Z,2.27
2019-04-20T16:20:25.052Z,2.90
2019-04-20T16:22:54.353Z,3.20
2019-04-20T16:25:31.840Z,2.57
2019-04-20T16:28:03.515Z,2.70
2019-04-20T16:30:33.789Z,2.80
2019-04-20T16:33:03.853Z,3.20
2019-04-20T16:35:34.217Z,3.37
2019-04-20T16:38:04.515Z,3.27
2019-04-20T16:40:35.659Z,3.00
2019-04-20T16:43:16.784Z,2.90
2019-04-20T16:45:37.341Z,3.00
2019-04-20T16:48:08.501Z,3.10
2019-04-20T16:50:38.474Z,3.10
2019-04-20T16:53:08.881Z,2.90
2019-04-20T16:55:38.926Z,2.60
2019-04-20T16:58:10.005Z,2.93
2019-04-20T17:00:41.150Z,3.10
2019-04-20T17:03:11.344Z,2.47
2019-04-20T17:05:41.273Z,3.40
2019-04-20T17:08:11.279Z,2.77
2019-04-20T17:10:41.096Z,3.77
2019-04-20T17:13:11.605Z,3.00
2019-04-20T17:15:41.815Z,2.70
2019-04-20T17:18:11.879Z,2.67
2019-04-20T17:20:41.736Z,2.50
2019-04-20T17:23:13.032Z,3.50
2019-04-20T17:25:43.870Z,3.27
2019-04-20T17:28:40.582Z,2.63
2019-04-20T17:31:45.244Z,3.23
2019-04-20T17:34:36.345Z,2.97
2019-04-20T17:36:49.025Z,3.00
2019-04-20T17:39:30.441Z,3.37
2019-04-20T17:42:10.030Z,3.23
2019-04-20T17:44:37.218Z,3.00
2019-04-20T17:47:09.586Z,2.60
2019-04-20T17:49:41.371Z,2.83
2019-04-20T17:52:24.292Z,2.80
2019-04-20T17:54:35.479Z,2.57
2019-04-20T17:57:08.805Z,2.60
2019-04-20T17:59:44.872Z,3.03
2019-04-20T18:02:44.369Z,3.00
2019-04-20T18:05:27.998Z,2.70
2019-04-20T18:07:58.781Z,2.30
2019-04-20T18:10:28.631Z,3.30
2019-04-20T18:12:47.722Z,3.10
2019-04-20T18:15:33.549Z,2.87
2019-04-20T18:18:23.921Z,2.57
2019-04-20T18:20:58.940Z,3.57
2019-04-20T18:23:36.366Z,2.70
2019-04-20T18:26:24.183Z,2.63
2019-04-20T18:28:55.724Z,2.80
2019-04-20T18:31:23.758Z,2.87
2019-04-20T18:34:02.884Z,3.60
2019-04-20T18:36:34.446Z,3.10
2019-04-20T18:39:04.960Z,2.77
2019-04-20T18:41:38.507Z,3.23
2019-04-20T18:44:06.397Z,3.27
2019-04-20T18:46:59.994Z,3.27
2019-04-20T18:49:23.737Z,3.17
2019-04-20T18:51:51.329Z,3.20
2019-04-20T18:54:26.616Z,2.83
2019-04-20T18:56:54.821Z,3.17
2019-04-20T18:59:35.219Z,2.73
2019-04-20T19:01:57.093Z,3.73
2019-04-20T19:04:27.965Z,3.03
2019-04-20T19:06:59.482Z,3.20
2019-04-20T19:09:32.047Z,2.90
2019-04-20T19:12:04.658Z,3.30
2019-04-20T19:14:51.701Z,3.57
2019-04-20T19:17:53.752Z,3.20
2019-04-20T19:20:21.204Z,3.30
2019-04-20T19:22:52.692Z,3.23
2019-04-20T19:25:27.318Z,3.20
2019-04-20T19:27:56.528Z,2.93
2019-04-20T19:30:35.496Z,3.40
2019-04-20T19:33:15.056Z,4.03
2019-04-20T19:35:40.582Z,3.07
2019-04-20T19:38:09.363Z,3.47
2019-04-20T19:40:46.326Z,3.50
2019-04-20T19:43:17.128Z,3.20
2019-04-20T19:46:06.641Z,3.20
2019-04-20T19:48:22.713Z,3.13
2019-04-20T19:51:07.007Z,3.30
2019-04-20T19:53:33.549Z,3.77
2019-04-20T19:55:56.635Z,3.57
2019-04-20T19:58:26.509Z,3.43
2019-04-20T20:00:53.425Z,3.87
2019-04-20T20:03:21.843Z,3.33
2019-04-20T20:05:52.930Z,4.00
2019-04-20T20:08:25.908Z,3.60
2019-04-20T20:10:58.211Z,4.07
2019-04-20T20:13:34.564Z,4.20
2019-04-20T20:16:09.055Z,3.60
2019-04-20T20:18:45.258Z,3.70
2019-04-20T20:21:17.538Z,3.60
2019-04-20T20:23:34.167Z,4.30
2019-04-20T20:26:07.245Z,4.33
2019-04-20T20:28:45.438Z,4.40
2019-04-20T20:31:21.815Z,4.40
2019-04-20T20:33:55.937Z,4.10
2019-04-20T20:36:15.794Z,4.17
2019-04-20T20:38:48.914Z,3.93
2019-04-20T20:41:24.984Z,4.10
2019-04-20T20:43:56.561Z,4.73
2019-04-20T20:46:28.757Z,4.20
2019-04-20T20:49:28.467Z,4.07
2019-04-20T20:51:44.239Z,4.60
2019-04-20T20:54:03.347Z,4.50
2019-04-20T20:56:28.933Z,4.90
2019-04-20T20:59:04.360Z,4.53
2019-04-20T21:01:37.669Z,4.63
2019-04-20T21:03:58.523Z,4.53
2019-04-20T21:06:28.716Z,4.60
2019-04-20T21:09:01.363Z,4.90
2019-04-20T21:11:33.140Z,4.90
2019-04-20T21:14:03.472Z,4.10
2019-04-20T21:16:36.768Z,4.10
2019-04-20T21:19:21.434Z,3.83
2019-04-20T21:21:46.249Z,4.13
2019-04-20T21:24:17.680Z,4.50
2019-04-20T21:26:45.950Z,4.03
2019-04-20T21:29:20.509Z,4.33
2019-04-20T21:31:55.561Z,3.87
2019-04-20T21:34:37.567Z,4.83
2019-04-20T21:37:27.238Z,4.80
2019-04-20T21:40:24.991Z,4.60
2019-04-20T21:43:10.870Z,4.10
2019-04-20T21:46:03.251Z,4.53
2019-04-20T21:49:01.738Z,4.37
2019-04-20T21:51:46.630Z,5.27
2019-04-20T21:54:29.832Z,4.63
2019-04-20T21:57:19.917Z,4.60
2019-04-20T22:00:18.950Z,4.47
2019-04-20T22:03:05.842Z,4.93
2019-04-20T22:05:53.019Z,4.07
2019-04-20T22:08:46.871Z,4.30
2019-04-20T22:11:31.580Z,4.60
2019-04-20T22:14:24.331Z,4.00
2019-04-20T22:17:14.232Z,4.57
2019-04-20T22:20:13.233Z,3.97
2019-04-20T22:23:03.019Z,4.73
2019-04-20T22:25:56.621Z,4.53
2019-04-20T22:28:29.843Z,4.67
2019-04-20T22:31:18.448Z,4.73
2019-04-20T22:34:13.877Z,5.23
2019-04-20T22:36:57.929Z,4.83
2019-04-20T22:39:52.906Z,5.23
2019-04-20T22:42:46.493Z,4.87
2019-04-20T22:45:29.505Z,4.70
2019-04-20T22:48:20.642Z,5.50
2019-04-20T22:51:25.862Z,4.90
2019-04-20T22:54:18.964Z,4.47
2019-04-20T22:56:57.013Z,5.03
2019-04-20T22:59:45.724Z,4.30
2019-04-20T23:02:26.903Z,4.97
2019-04-20T23:05:15.976Z,4.53
2019-04-20T23:08:04.577Z,4.67
2019-04-20T23:10:53.545Z,4.30
2019-04-20T23:13:43.609Z,4.20
2019-04-20T23:16:37.865Z,4.87
2019-04-20T23:19:32.065Z,4.57
2019-04-20T23:22:13.781Z,4.97
2019-04-20T23:25:00.953Z,4.27
2019-04-20T23:27:53.727Z,4.37
2019-04-20T23:30:40.699Z,4.70
2019-04-20T23:33:29.546Z,5.27
2019-04-20T23:36:19.190Z,5.87
2019-04-20T23:39:08.624Z,5.43
2019-04-20T23:42:01.606Z,5.57
2019-04-20T23:44:56.246Z,5.33
2019-04-20T23:47:55.250Z,6.23
2019-04-20T23:50:54.424Z,5.73
2019-04-20T23:53:45.270Z,5.77
2019-04-20T23:56:20.508Z,5.63
2019-04-20T23:59:08.770Z,4.77
